German, Illinois
Current Conditions -  °F | °C
As of 10:55 AM on Sunday 23 Nov 2014 (Local Time) from KOLY Reporting Station
Haze Haze  
Wind Chill: 50°   Ceiling: 1800
Heat Index: 50°   Visibility: 4mi
Dew Point: 46°   Wind: 7mph
Humidity: 87%   Direction: 130°SE
Pressure: 29.7"   Gusts: NA
Location:  38.755°N, 87.9657°W
Report Text: KOLY 231655Z AUTO 13006KT 4SM BR OVC018 10/08 A2970 RMK AO2
Loading
Personal Weather Stations






























Interactive Weather Map New forecast layout! Learn more

10-Day Weather Forecast

Advertisements
Track Severe Weather on mobile